createdAt,value
2019-03-22T00:00:46.128Z,7.57
2019-03-22T00:03:14.241Z,7.44
2019-03-22T00:05:42.248Z,7.35
2019-03-22T00:08:10.224Z,7.25
2019-03-22T00:10:38.298Z,7.13
2019-03-22T00:13:06.389Z,7.02
2019-03-22T00:15:34.432Z,7.01
2019-03-22T00:18:02.480Z,7.05
2019-03-22T00:20:30.638Z,6.87
2019-03-22T00:22:58.628Z,6.88
2019-03-22T00:25:26.710Z,6.74
2019-03-22T00:27:54.722Z,6.76
2019-03-22T00:30:22.653Z,6.72
2019-03-22T00:32:50.713Z,6.55
2019-03-22T00:35:18.783Z,6.46
2019-03-22T00:37:46.888Z,6.43
2019-03-22T00:40:14.986Z,6.34
2019-03-22T00:42:43.074Z,6.22
2019-03-22T00:45:11.518Z,6.18
2019-03-22T00:47:39.589Z,6.27
2019-03-22T00:50:07.679Z,6.51
2019-03-22T00:52:35.647Z,6.26
2019-03-22T00:55:04.020Z,6.23
2019-03-22T00:57:32.043Z,6.18
2019-03-22T00:59:59.992Z,6.36
2019-03-22T01:02:28.134Z,6.35
2019-03-22T01:04:56.130Z,6.30
2019-03-22T01:07:24.189Z,6.30
2019-03-22T01:09:52.186Z,6.31
2019-03-22T01:12:20.347Z,6.31
2019-03-22T01:14:48.451Z,6.32
2019-03-22T01:17:16.513Z,6.22
2019-03-22T01:19:44.669Z,6.19
2019-03-22T01:22:12.895Z,6.12
2019-03-22T01:24:40.946Z,6.08
2019-03-22T01:27:08.948Z,6.09
2019-03-22T01:29:37.021Z,6.09
2019-03-22T01:32:05.155Z,6.05
2019-03-22T01:34:33.221Z,5.93
2019-03-22T01:37:01.281Z,6.03
2019-03-22T01:39:29.376Z,5.89
2019-03-22T01:41:57.445Z,5.83
2019-03-22T01:44:25.567Z,5.86
2019-03-22T01:46:53.613Z,5.89
2019-03-22T01:49:21.908Z,5.84
2019-03-22T01:51:49.955Z,5.90
2019-03-22T01:54:18.062Z,5.94
2019-03-22T01:56:46.175Z,5.98
2019-03-22T01:59:14.110Z,6.33
2019-03-22T02:01:42.142Z,6.26
2019-03-22T02:04:10.183Z,6.50
2019-03-22T02:06:38.143Z,6.24
2019-03-22T02:09:07.988Z,6.16
2019-03-22T02:11:36.079Z,6.09
2019-03-22T02:14:04.402Z,6.04
2019-03-22T02:16:32.470Z,6.15
2019-03-22T02:19:00.543Z,6.25
2019-03-22T02:21:28.842Z,6.15
2019-03-22T02:23:56.891Z,6.06
2019-03-22T02:26:24.922Z,6.30
2019-03-22T02:28:53.499Z,6.09
2019-03-22T02:31:21.563Z,6.27
2019-03-22T02:33:49.738Z,6.08
2019-03-22T02:36:17.809Z,6.03
2019-03-22T02:38:46.423Z,6.03
2019-03-22T02:41:14.856Z,5.90
2019-03-22T02:43:42.883Z,5.88
2019-03-22T02:46:11.039Z,5.88
2019-03-22T02:48:39.126Z,5.92
2019-03-22T02:51:07.155Z,5.76
2019-03-22T02:53:35.173Z,5.68
2019-03-22T02:56:03.467Z,5.51
2019-03-22T02:58:31.711Z,5.33
2019-03-22T03:01:00.035Z,5.26
2019-03-22T03:03:28.005Z,5.14
2019-03-22T03:05:56.107Z,5.25
2019-03-22T03:08:24.130Z,5.15
2019-03-22T03:10:52.057Z,5.15
2019-03-22T03:13:20.093Z,5.13
2019-03-22T03:15:48.282Z,5.04
2019-03-22T03:18:16.429Z,5.06
2019-03-22T03:20:44.470Z,4.92
2019-03-22T03:23:12.523Z,4.97
2019-03-22T03:25:40.623Z,5.06
2019-03-22T03:28:08.581Z,4.91
2019-03-22T03:30:36.678Z,5.03
2019-03-22T03:33:04.745Z,5.11
2019-03-22T03:35:32.711Z,5.22
2019-03-22T03:38:00.779Z,5.19
2019-03-22T03:40:28.852Z,5.14
2019-03-22T03:42:56.901Z,5.06
2019-03-22T03:45:33.400Z,4.99
2019-03-22T03:48:02.211Z,4.96
2019-03-22T03:50:30.577Z,5.07
2019-03-22T03:52:58.593Z,4.96
2019-03-22T03:55:26.666Z,4.86
2019-03-22T03:57:54.704Z,4.86
2019-03-22T04:00:22.783Z,4.89
2019-03-22T04:02:50.852Z,4.89
2019-03-22T04:05:18.807Z,4.85
2019-03-22T04:07:46.852Z,4.72
2019-03-22T04:10:14.883Z,4.61
2019-03-22T04:12:42.801Z,4.59
2019-03-22T04:15:10.883Z,4.66
2019-03-22T04:17:39.002Z,4.63
2019-03-22T04:20:07.188Z,4.63
2019-03-22T04:22:36.497Z,4.51
2019-03-22T04:25:05.442Z,4.51
2019-03-22T04:27:33.461Z,4.41
2019-03-22T04:30:01.534Z,4.58
2019-03-22T04:32:29.477Z,4.65
2019-03-22T04:34:57.533Z,4.61
2019-03-22T04:37:25.574Z,4.61
2019-03-22T04:39:53.579Z,4.72
2019-03-22T04:42:21.637Z,4.64
2019-03-22T04:44:49.685Z,4.79
2019-03-22T04:47:20.139Z,4.87
2019-03-22T04:49:52.401Z,4.82
2019-03-22T04:52:23.308Z,4.72
2019-03-22T04:54:54.825Z,4.65
2019-03-22T04:57:24.134Z,4.68
2019-03-22T04:59:52.910Z,4.81
2019-03-22T05:02:22.155Z,5.04
2019-03-22T05:04:50.764Z,4.85
2019-03-22T05:07:19.290Z,4.92
2019-03-22T05:09:48.856Z,5.00
2019-03-22T05:12:19.423Z,4.92
2019-03-22T05:14:48.570Z,4.90
2019-03-22T05:17:17.752Z,4.87
2019-03-22T05:19:51.472Z,4.95
2019-03-22T05:22:22.199Z,5.16
2019-03-22T05:24:50.910Z,5.28
2019-03-22T05:27:20.370Z,5.42
2019-03-22T05:29:50.021Z,5.57
2019-03-22T05:32:18.772Z,5.81
2019-03-22T05:34:46.782Z,5.96
2019-03-22T05:37:14.990Z,5.95
2019-03-22T05:39:43.087Z,6.20
2019-03-22T05:42:11.323Z,6.33
2019-03-22T05:44:39.455Z,6.34
2019-03-22T05:47:07.455Z,6.40
2019-03-22T05:49:35.554Z,6.50
2019-03-22T05:52:03.696Z,6.71
2019-03-22T05:54:31.721Z,6.79
2019-03-22T05:56:59.867Z,7.01
2019-03-22T05:59:27.900Z,6.87
2019-03-22T06:01:55.901Z,6.78
2019-03-22T06:04:23.976Z,6.78
2019-03-22T06:06:52.045Z,6.72
2019-03-22T06:09:20.064Z,6.89
2019-03-22T06:11:48.063Z,6.71
2019-03-22T06:14:16.078Z,6.80
2019-03-22T06:16:44.220Z,6.75
2019-03-22T06:19:12.572Z,6.92
2019-03-22T06:21:40.807Z,6.89
2019-03-22T06:24:08.892Z,6.74
2019-03-22T06:26:36.976Z,6.76
2019-03-22T06:29:05.005Z,6.99
2019-03-22T06:31:33.042Z,6.93
2019-03-22T06:34:01.129Z,6.96
2019-03-22T06:36:29.303Z,6.95
2019-03-22T06:38:57.459Z,7.12
2019-03-22T06:41:25.649Z,7.16
2019-03-22T06:43:53.655Z,7.34
2019-03-22T06:46:21.940Z,7.51
2019-03-22T06:48:49.930Z,7.70
2019-03-22T06:51:17.983Z,7.73
2019-03-22T06:53:45.929Z,7.84
2019-03-22T06:56:13.949Z,7.89
2019-03-22T06:58:42.044Z,7.65
2019-03-22T07:01:10.023Z,7.90
2019-03-22T07:03:38.495Z,8.02
2019-03-22T07:06:06.498Z,8.13
2019-03-22T07:08:34.413Z,8.31
2019-03-22T07:11:02.535Z,8.62
2019-03-22T07:13:30.537Z,8.81
2019-03-22T07:15:58.533Z,8.71
2019-03-22T07:18:26.542Z,8.71
2019-03-22T07:20:54.612Z,8.69
2019-03-22T07:23:22.758Z,8.70
2019-03-22T07:25:50.745Z,8.91
2019-03-22T07:28:18.786Z,9.12
2019-03-22T07:30:46.918Z,9.21
2019-03-22T07:33:14.917Z,9.43
2019-03-22T07:35:42.957Z,9.57
2019-03-22T07:38:11.191Z,9.63
2019-03-22T07:40:39.353Z,9.67
2019-03-22T07:43:07.313Z,9.81
2019-03-22T07:45:35.358Z,9.79
2019-03-22T07:48:03.463Z,9.77
2019-03-22T07:50:31.456Z,9.84
2019-03-22T07:52:59.501Z,10.07
2019-03-22T07:55:27.505Z,10.20
2019-03-22T07:57:56.881Z,10.42
2019-03-22T08:00:30.684Z,10.98
2019-03-22T08:02:54.848Z,11.15
2019-03-22T08:05:22.984Z,10.75
2019-03-22T08:07:51.070Z,10.57
2019-03-22T08:10:18.986Z,10.61
2019-03-22T08:12:47.122Z,10.52
2019-03-22T08:15:28.967Z,10.46
2019-03-22T08:17:57.320Z,10.53
2019-03-22T08:20:25.814Z,11.01
2019-03-22T08:22:53.871Z,11.78
2019-03-22T08:25:21.926Z,12.29
2019-03-22T08:27:50.122Z,12.34
2019-03-22T08:30:18.013Z,12.59
2019-03-22T08:32:46.089Z,12.55
2019-03-22T08:35:14.072Z,12.14
2019-03-22T08:37:51.956Z,11.77
2019-03-22T08:40:12.595Z,11.71
2019-03-22T08:42:40.586Z,12.15
2019-03-22T08:45:11.293Z,12.36
2019-03-22T08:47:39.428Z,12.27
2019-03-22T08:50:07.591Z,12.82
2019-03-22T08:52:35.667Z,13.15
2019-03-22T08:55:03.751Z,12.74
2019-03-22T08:57:33.279Z,12.57
2019-03-22T09:00:01.272Z,12.82
2019-03-22T09:02:29.303Z,12.75
2019-03-22T09:04:57.454Z,12.85
2019-03-22T09:07:25.472Z,13.01
2019-03-22T09:09:53.516Z,13.02
2019-03-22T09:12:21.568Z,13.14
2019-03-22T09:14:49.576Z,13.40
2019-03-22T09:17:17.655Z,13.51
2019-03-22T09:19:45.711Z,13.73
2019-03-22T09:22:13.719Z,13.72
2019-03-22T09:24:41.962Z,13.85
2019-03-22T09:27:09.931Z,14.06
2019-03-22T09:29:38.003Z,14.48
2019-03-22T09:32:06.074Z,14.93
2019-03-22T09:34:34.392Z,14.80
2019-03-22T09:37:02.534Z,14.92
2019-03-22T09:39:30.560Z,14.93
2019-03-22T09:41:58.690Z,14.47
2019-03-22T09:44:28.352Z,14.61
2019-03-22T09:46:56.661Z,14.92
2019-03-22T09:49:24.971Z,15.09
2019-03-22T09:51:55.221Z,15.03
2019-03-22T09:54:23.141Z,15.11
2019-03-22T09:56:51.258Z,14.66
2019-03-22T09:59:19.471Z,14.42
2019-03-22T10:01:47.600Z,14.64
2019-03-22T10:04:16.897Z,15.05
2019-03-22T10:06:45.129Z,14.78
2019-03-22T10:09:13.179Z,14.48
2019-03-22T10:11:41.497Z,14.59
2019-03-22T10:14:09.584Z,14.45
2019-03-22T10:16:37.677Z,14.27
2019-03-22T10:19:05.686Z,14.06
2019-03-22T10:21:33.786Z,13.92
2019-03-22T10:24:02.138Z,14.06
2019-03-22T10:26:30.332Z,14.35
2019-03-22T10:28:58.536Z,14.34
2019-03-22T10:31:36.590Z,14.25
2019-03-22T10:33:56.628Z,14.08
2019-03-22T10:36:24.735Z,14.27
2019-03-22T10:38:52.672Z,14.41
2019-03-22T10:41:20.756Z,14.68
2019-03-22T10:43:48.841Z,14.62
2019-03-22T10:46:17.136Z,14.60
2019-03-22T10:48:45.339Z,14.38
2019-03-22T10:51:13.429Z,14.22
2019-03-22T10:53:41.457Z,14.33
2019-03-22T10:56:09.574Z,14.32
2019-03-22T10:58:37.698Z,14.46
2019-03-22T11:01:08.295Z,14.42
2019-03-22T11:03:35.922Z,14.66
2019-03-22T11:06:04.061Z,14.99
2019-03-22T11:08:32.084Z,15.14
2019-03-22T11:11:00.120Z,14.94
2019-03-22T11:13:28.128Z,15.20
2019-03-22T11:15:56.158Z,15.30
2019-03-22T11:18:24.168Z,15.51
2019-03-22T11:20:52.421Z,15.60
2019-03-22T11:23:20.514Z,15.63
2019-03-22T11:25:48.916Z,15.97
2019-03-22T11:28:17.112Z,16.23
2019-03-22T11:30:45.254Z,16.05
2019-03-22T11:33:13.350Z,16.30
2019-03-22T11:35:41.341Z,16.16
2019-03-22T11:38:09.404Z,16.34
2019-03-22T11:40:37.531Z,16.51
2019-03-22T11:43:08.833Z,16.50
2019-03-22T11:45:35.764Z,16.49
2019-03-22T11:48:03.986Z,16.71
2019-03-22T11:50:32.157Z,16.43
2019-03-22T11:53:00.287Z,16.64
2019-03-22T11:55:28.406Z,16.89
2019-03-22T11:57:56.492Z,17.05
2019-03-22T12:00:25.350Z,17.02
2019-03-22T12:02:53.460Z,17.03
2019-03-22T12:05:21.910Z,17.16
2019-03-22T12:07:49.992Z,17.12
2019-03-22T12:10:19.026Z,17.01
2019-03-22T12:12:47.224Z,17.09
2019-03-22T12:15:17.511Z,16.97
2019-03-22T12:17:45.565Z,16.96
2019-03-22T12:20:14.372Z,17.11
2019-03-22T12:22:42.542Z,17.15
2019-03-22T12:25:13.322Z,17.19
2019-03-22T12:27:41.465Z,17.06
2019-03-22T12:30:14.231Z,17.00
2019-03-22T12:32:42.431Z,16.92
2019-03-22T12:35:10.860Z,16.54
2019-03-22T12:37:38.949Z,16.49
2019-03-22T12:40:07.657Z,16.31
2019-03-22T12:42:35.589Z,16.22
2019-03-22T12:45:05.543Z,16.19
2019-03-22T12:47:33.680Z,16.32
2019-03-22T12:50:01.700Z,16.59
2019-03-22T12:52:31.356Z,16.78
2019-03-22T12:54:59.476Z,16.86
2019-03-22T12:57:27.604Z,17.17
2019-03-22T12:59:55.581Z,17.25
2019-03-22T13:02:23.627Z,17.57
2019-03-22T13:04:51.725Z,17.40
2019-03-22T13:07:19.865Z,17.11
2019-03-22T13:09:48.789Z,16.97
2019-03-22T13:12:17.394Z,17.22
2019-03-22T13:14:45.466Z,17.33
2019-03-22T13:17:13.547Z,17.66
2019-03-22T13:19:41.562Z,17.60
2019-03-22T13:22:09.567Z,17.29
2019-03-22T13:24:37.628Z,17.15
2019-03-22T13:27:05.827Z,17.11
2019-03-22T13:29:33.941Z,17.09
2019-03-22T13:32:02.110Z,17.15
2019-03-22T13:34:30.113Z,17.13
2019-03-22T13:36:58.214Z,17.48
2019-03-22T13:39:26.538Z,17.83
2019-03-22T13:41:54.528Z,18.13
2019-03-22T13:44:22.554Z,18.10
2019-03-22T13:46:50.745Z,17.33
2019-03-22T13:49:18.875Z,17.76
2019-03-22T13:51:46.916Z,17.58
2019-03-22T13:54:15.845Z,17.55
2019-03-22T13:56:43.789Z,17.70
2019-03-22T13:59:11.843Z,17.48
2019-03-22T14:01:39.965Z,17.30
2019-03-22T14:04:08.130Z,17.20
2019-03-22T14:06:36.150Z,17.62
2019-03-22T14:09:06.572Z,17.95
2019-03-22T14:11:34.631Z,17.79
2019-03-22T14:14:02.709Z,17.59
2019-03-22T14:16:30.727Z,17.54
2019-03-22T14:19:00.050Z,17.55
2019-03-22T14:21:28.231Z,17.38
2019-03-22T14:23:56.233Z,17.59
2019-03-22T14:26:24.429Z,17.95
2019-03-22T14:28:52.450Z,17.96
2019-03-22T14:31:20.500Z,17.87
2019-03-22T14:33:48.537Z,17.75
2019-03-22T14:36:16.638Z,17.66
2019-03-22T14:38:44.690Z,17.84
2019-03-22T14:41:12.665Z,18.00
2019-03-22T14:43:40.712Z,17.83
2019-03-22T14:46:08.788Z,17.83
2019-03-22T14:48:36.741Z,18.13
2019-03-22T14:51:04.812Z,19.16
2019-03-22T14:53:32.893Z,19.20
2019-03-22T14:56:01.695Z,18.78
2019-03-22T14:58:29.674Z,18.59
2019-03-22T15:00:57.677Z,18.27
2019-03-22T15:03:28.587Z,17.90
2019-03-22T15:05:57.622Z,17.82
2019-03-22T15:08:25.767Z,17.45
2019-03-22T15:10:55.921Z,17.30
2019-03-22T15:13:32.112Z,17.07
2019-03-22T15:16:18.151Z,16.94
2019-03-22T15:19:05.694Z,17.00
2019-03-22T15:21:52.397Z,16.78
2019-03-22T15:24:48.968Z,16.66
2019-03-22T15:27:35.003Z,16.34
2019-03-22T15:30:30.298Z,16.14
2019-03-22T15:33:34.217Z,16.03
2019-03-22T15:36:07.778Z,15.94
2019-03-22T15:39:00.287Z,15.81
2019-03-22T15:41:28.564Z,15.78
2019-03-22T15:43:56.595Z,15.68
2019-03-22T15:46:24.678Z,15.62
2019-03-22T15:48:52.714Z,15.49
2019-03-22T15:51:20.727Z,15.41
2019-03-22T15:53:48.822Z,15.42
2019-03-22T15:56:17.074Z,15.44
2019-03-22T15:58:45.097Z,15.27
2019-03-22T16:01:13.170Z,15.18
2019-03-22T16:03:44.361Z,15.11
2019-03-22T16:06:11.743Z,15.08
2019-03-22T16:08:39.757Z,14.97
2019-03-22T16:11:07.826Z,14.93
2019-03-22T16:13:36.338Z,14.94
2019-03-22T16:16:05.237Z,14.86
2019-03-22T16:18:34.396Z,14.83
2019-03-22T16:21:03.795Z,14.79
2019-03-22T16:23:32.455Z,14.72
2019-03-22T16:26:00.973Z,14.61
2019-03-22T16:28:29.834Z,14.57
2019-03-22T16:30:58.950Z,14.47
2019-03-22T16:33:27.302Z,14.43
2019-03-22T16:35:55.414Z,14.39
2019-03-22T16:38:23.481Z,14.36
2019-03-22T16:40:51.642Z,14.32
2019-03-22T16:43:19.667Z,14.24
2019-03-22T16:45:47.685Z,14.27
2019-03-22T16:48:15.799Z,14.28
2019-03-22T16:50:43.967Z,14.23
2019-03-22T16:53:12.129Z,14.11
2019-03-22T16:55:41.140Z,14.00
2019-03-22T16:58:11.420Z,13.90
2019-03-22T17:00:40.260Z,14.08
2019-03-22T17:03:09.764Z,13.94
2019-03-22T17:05:38.443Z,14.06
2019-03-22T17:08:08.233Z,14.07
2019-03-22T17:10:36.533Z,13.97
2019-03-22T17:13:05.725Z,13.92
2019-03-22T17:15:35.047Z,13.89
2019-03-22T17:18:04.487Z,13.88
2019-03-22T17:20:34.519Z,13.88
2019-03-22T17:23:03.543Z,13.87
2019-03-22T17:25:32.270Z,13.87
2019-03-22T17:28:00.951Z,13.83
2019-03-22T17:30:29.103Z,13.80
2019-03-22T17:32:58.211Z,13.77
2019-03-22T17:35:31.779Z,13.75
2019-03-22T17:38:00.539Z,13.72
2019-03-22T17:40:29.227Z,13.74
2019-03-22T17:42:58.029Z,13.77
2019-03-22T17:45:27.769Z,13.75
2019-03-22T17:47:57.822Z,13.68
2019-03-22T17:50:27.531Z,13.63
2019-03-22T17:52:56.876Z,13.56
2019-03-22T17:55:26.444Z,13.56
2019-03-22T17:57:55.213Z,13.56
2019-03-22T18:00:25.137Z,13.44
2019-03-22T18:02:53.871Z,13.66
2019-03-22T18:05:22.240Z,13.59
2019-03-22T18:07:51.201Z,13.52
2019-03-22T18:10:19.541Z,13.48
2019-03-22T18:12:47.890Z,13.39
2019-03-22T18:15:16.275Z,13.31
2019-03-22T18:17:45.017Z,13.27
2019-03-22T18:20:13.590Z,13.20
2019-03-22T18:22:41.873Z,13.13
2019-03-22T18:25:11.099Z,13.07
2019-03-22T18:27:39.844Z,12.99
2019-03-22T18:30:08.912Z,12.93
2019-03-22T18:32:37.363Z,12.88
2019-03-22T18:35:06.471Z,12.86
2019-03-22T18:37:35.352Z,12.84
2019-03-22T18:40:07.417Z,12.82
2019-03-22T18:42:35.520Z,12.77
2019-03-22T18:45:04.265Z,12.77
2019-03-22T18:47:32.248Z,12.70
2019-03-22T18:50:00.303Z,12.61
2019-03-22T18:52:28.738Z,12.60
2019-03-22T18:54:56.736Z,12.53
2019-03-22T18:57:24.725Z,12.52
2019-03-22T18:59:52.688Z,12.50
2019-03-22T19:02:20.805Z,12.50
2019-03-22T19:04:48.877Z,12.49
2019-03-22T19:07:16.813Z,12.46
2019-03-22T19:09:44.969Z,12.42
2019-03-22T19:12:12.975Z,12.45
2019-03-22T19:14:40.999Z,12.41
2019-03-22T19:17:09.031Z,12.41
2019-03-22T19:19:36.976Z,12.42
2019-03-22T19:22:05.154Z,12.42
2019-03-22T19:24:33.273Z,12.37
2019-03-22T19:27:01.305Z,12.42
2019-03-22T19:29:29.597Z,12.34
2019-03-22T19:31:57.657Z,12.60
2019-03-22T19:34:25.715Z,12.93
2019-03-22T19:36:53.777Z,12.87
2019-03-22T19:39:21.743Z,12.91
2019-03-22T19:41:50.534Z,13.00
2019-03-22T19:44:18.507Z,12.98
2019-03-22T19:46:46.879Z,12.84
2019-03-22T19:49:14.943Z,12.66
2019-03-22T19:51:43.105Z,13.00
2019-03-22T19:54:11.315Z,12.71
2019-03-22T19:56:39.291Z,12.53
2019-03-22T19:59:07.334Z,12.69
2019-03-22T20:01:35.304Z,12.61
2019-03-22T20:04:04.455Z,12.55
2019-03-22T20:06:32.543Z,12.34
2019-03-22T20:09:01.006Z,11.91
2019-03-22T20:11:29.295Z,11.93
2019-03-22T20:13:57.930Z,12.16
2019-03-22T20:16:25.870Z,12.12
2019-03-22T20:18:53.891Z,12.00
2019-03-22T20:21:22.553Z,11.77
2019-03-22T20:23:53.807Z,11.98
2019-03-22T20:26:20.813Z,11.95
2019-03-22T20:28:51.178Z,11.88
2019-03-22T20:31:19.377Z,12.10
2019-03-22T20:33:47.885Z,12.10
2019-03-22T20:36:16.186Z,12.02
2019-03-22T20:38:44.659Z,11.93
2019-03-22T20:41:13.637Z,11.81
2019-03-22T20:43:41.572Z,11.75
2019-03-22T20:46:10.342Z,11.67
2019-03-22T20:48:38.741Z,11.42
2019-03-22T20:51:07.116Z,11.48
2019-03-22T20:53:35.163Z,11.42
2019-03-22T20:56:04.209Z,11.29
2019-03-22T20:58:32.285Z,11.29
2019-03-22T21:01:00.237Z,11.32
2019-03-22T21:03:28.290Z,11.25
2019-03-22T21:05:56.344Z,11.06
2019-03-22T21:08:24.410Z,10.87
2019-03-22T21:10:52.420Z,10.69
2019-03-22T21:13:20.370Z,10.60
2019-03-22T21:15:52.718Z,10.46
2019-03-22T21:18:20.710Z,10.47
2019-03-22T21:20:48.731Z,10.29
2019-03-22T21:23:16.758Z,10.13
2019-03-22T21:25:44.929Z,9.98
2019-03-22T21:28:12.940Z,9.88
2019-03-22T21:30:40.927Z,9.76
2019-03-22T21:33:08.853Z,9.63
2019-03-22T21:35:37.747Z,9.53
2019-03-22T21:38:10.896Z,9.35
2019-03-22T21:40:35.758Z,9.20
2019-03-22T21:43:03.931Z,8.91
2019-03-22T21:45:31.879Z,9.19
2019-03-22T21:48:00.004Z,9.28
2019-03-22T21:50:27.969Z,9.23
2019-03-22T21:52:55.935Z,9.21
2019-03-22T21:55:23.928Z,9.11
2019-03-22T21:57:51.906Z,8.94
2019-03-22T22:00:19.901Z,8.86
2019-03-22T22:02:47.844Z,8.66
2019-03-22T22:05:15.813Z,8.67
2019-03-22T22:07:43.790Z,8.85
2019-03-22T22:10:11.754Z,8.97
2019-03-22T22:12:39.780Z,9.00
2019-03-22T22:15:09.790Z,8.88
2019-03-22T22:17:39.336Z,8.81
2019-03-22T22:20:08.034Z,8.83
2019-03-22T22:22:36.420Z,8.76
2019-03-22T22:25:04.651Z,8.77
2019-03-22T22:27:32.826Z,8.91
2019-03-22T22:30:00.850Z,8.97
2019-03-22T22:32:29.401Z,8.94
2019-03-22T22:34:57.349Z,8.98
2019-03-22T22:37:25.335Z,9.27
2019-03-22T22:39:53.318Z,9.13
2019-03-22T22:42:21.307Z,8.99
2019-03-22T22:44:49.300Z,8.91
2019-03-22T22:47:17.243Z,8.89
2019-03-22T22:49:53.770Z,8.91
2019-03-22T22:52:24.635Z,8.87
2019-03-22T22:54:52.555Z,8.55
2019-03-22T22:57:20.532Z,8.68
2019-03-22T22:59:48.600Z,8.38
2019-03-22T23:02:16.594Z,8.43
2019-03-22T23:04:44.636Z,8.37
2019-03-22T23:07:12.677Z,8.39
2019-03-22T23:09:40.708Z,8.36
2019-03-22T23:12:08.653Z,8.45
2019-03-22T23:14:36.801Z,8.43
2019-03-22T23:17:04.905Z,8.62
2019-03-22T23:19:32.802Z,8.50
2019-03-22T23:22:00.975Z,8.29
2019-03-22T23:24:28.948Z,8.31
2019-03-22T23:26:57.044Z,8.31
2019-03-22T23:29:25.731Z,8.39
2019-03-22T23:32:00.236Z,8.32
2019-03-22T23:34:28.505Z,8.38
2019-03-22T23:36:56.447Z,8.36
2019-03-22T23:39:24.436Z,8.17
2019-03-22T23:41:52.522Z,8.37
2019-03-22T23:44:20.431Z,8.15
2019-03-22T23:46:48.519Z,7.82
2019-03-22T23:49:16.579Z,7.68
2019-03-22T23:51:44.624Z,7.87
2019-03-22T23:54:12.621Z,7.97
2019-03-22T23:56:40.640Z,8.11
2019-03-22T23:59:08.571Z,8.06
